createdAt,value
2019-02-07T00:01:29.692Z,99.90
2019-02-07T00:03:58.559Z,99.90
2019-02-07T00:06:27.546Z,99.90
2019-02-07T00:08:56.429Z,99.90
2019-02-07T00:11:25.389Z,99.90
2019-02-07T00:13:54.362Z,99.90
2019-02-07T00:16:23.632Z,99.90
2019-02-07T00:18:52.586Z,99.90
2019-02-07T00:21:21.440Z,99.90
2019-02-07T00:23:50.388Z,99.90
2019-02-07T00:26:21.361Z,99.90
2019-02-07T00:28:50.561Z,99.90
2019-02-07T00:31:19.973Z,99.90
2019-02-07T00:33:48.888Z,99.90
2019-02-07T00:36:17.911Z,99.90
2019-02-07T00:38:46.841Z,99.90
2019-02-07T00:41:15.841Z,99.90
2019-02-07T00:43:44.809Z,99.90
2019-02-07T00:46:14.323Z,99.90
2019-02-07T00:48:43.435Z,99.90
2019-02-07T00:51:12.492Z,99.90
2019-02-07T00:53:41.480Z,99.90
2019-02-07T00:56:10.689Z,99.90
2019-02-07T00:58:39.574Z,99.90
2019-02-07T01:01:08.837Z,99.90
2019-02-07T01:03:37.757Z,99.90
2019-02-07T01:06:06.736Z,99.90
2019-02-07T01:08:35.620Z,99.90
2019-02-07T01:11:04.534Z,99.90
2019-02-07T01:13:33.872Z,99.90
2019-02-07T01:16:03.228Z,99.90
2019-02-07T01:18:32.284Z,99.90
2019-02-07T01:21:01.724Z,99.90
2019-02-07T01:23:30.640Z,99.90
2019-02-07T01:25:59.960Z,99.90
2019-02-07T01:28:28.927Z,99.90
2019-02-07T01:30:58.228Z,99.90
2019-02-07T01:33:27.076Z,99.90
2019-02-07T01:35:56.035Z,99.90
2019-02-07T01:38:25.076Z,99.90
2019-02-07T01:40:54.085Z,99.90
2019-02-07T01:43:22.984Z,99.90
2019-02-07T01:45:52.311Z,99.90
2019-02-07T01:48:21.553Z,99.90
2019-02-07T01:50:51.074Z,99.90
2019-02-07T01:53:20.068Z,99.90
2019-02-07T01:55:49.090Z,99.90
2019-02-07T01:58:18.123Z,99.90
2019-02-07T02:00:47.028Z,99.90
2019-02-07T02:03:16.186Z,99.90
2019-02-07T02:05:45.009Z,99.90
2019-02-07T02:08:13.900Z,99.90
2019-02-07T02:10:42.947Z,99.90
2019-02-07T02:13:11.974Z,99.90
2019-02-07T02:15:40.956Z,99.90
2019-02-07T02:18:10.179Z,99.90
2019-02-07T02:20:39.051Z,99.90
2019-02-07T02:23:08.011Z,99.90
2019-02-07T02:25:36.900Z,99.90
2019-02-07T02:28:05.947Z,99.90
2019-02-07T02:30:35.565Z,99.90
2019-02-07T02:33:05.375Z,99.90
2019-02-07T02:35:34.263Z,99.90
2019-02-07T02:38:03.622Z,99.90
2019-02-07T02:40:32.929Z,99.90
2019-02-07T02:43:21.473Z,99.90
2019-02-07T02:45:50.414Z,99.90
2019-02-07T02:48:19.180Z,99.90
2019-02-07T02:50:47.997Z,99.90
2019-02-07T02:53:16.948Z,99.90
2019-02-07T02:55:46.340Z,99.90
2019-02-07T02:58:15.517Z,99.90
2019-02-07T03:01:02.367Z,99.90
2019-02-07T03:03:54.780Z,99.90
2019-02-07T03:06:39.050Z,99.90
2019-02-07T03:09:30.840Z,99.90
2019-02-07T03:12:25.049Z,99.90
2019-02-07T03:15:09.074Z,99.90
2019-02-07T03:17:56.313Z,99.90
2019-02-07T03:20:56.654Z,99.90
2019-02-07T03:23:47.374Z,99.90
2019-02-07T03:26:43.691Z,99.90
2019-02-07T03:29:34.745Z,99.90
2019-02-07T03:32:19.579Z,99.90
2019-02-07T03:34:55.488Z,99.90
2019-02-07T03:37:51.439Z,99.90
2019-02-07T03:40:38.527Z,99.90
2019-02-07T03:43:25.828Z,99.90
2019-02-07T03:46:08.385Z,99.90
2019-02-07T03:48:48.120Z,99.90
2019-02-07T03:51:36.104Z,99.90
2019-02-07T03:54:21.419Z,99.90
2019-02-07T03:57:08.773Z,99.90
2019-02-07T04:00:03.977Z,99.90
2019-02-07T04:02:49.840Z,99.90
2019-02-07T04:05:43.729Z,99.90
2019-02-07T04:08:31.706Z,99.90
2019-02-07T04:11:18.862Z,99.90
2019-02-07T04:14:02.121Z,99.90
2019-02-07T04:16:44.050Z,99.90
2019-02-07T04:19:44.537Z,99.90
2019-02-07T04:22:39.653Z,99.90
2019-02-07T04:25:30.744Z,99.90
2019-02-07T04:28:18.901Z,99.90
2019-02-07T04:31:12.900Z,99.90
2019-02-07T04:34:00.848Z,99.90
2019-02-07T04:36:51.808Z,99.90
2019-02-07T04:39:37.625Z,99.90
2019-02-07T04:42:31.548Z,99.90
2019-02-07T04:45:08.861Z,99.90
2019-02-07T04:48:02.780Z,99.90
2019-02-07T04:50:49.628Z,99.90
2019-02-07T04:53:50.317Z,99.90
2019-02-07T04:56:26.857Z,99.90
2019-02-07T04:59:14.738Z,99.90
2019-02-07T05:01:58.532Z,99.90
2019-02-07T05:04:55.601Z,99.90
2019-02-07T05:07:44.005Z,99.90
2019-02-07T05:10:30.954Z,99.90
2019-02-07T05:13:37.340Z,99.90
2019-02-07T05:16:39.713Z,99.90
2019-02-07T05:19:22.921Z,99.90
2019-02-07T05:22:09.477Z,99.90
2019-02-07T05:24:45.877Z,99.90
2019-02-07T05:27:38.941Z,99.90
2019-02-07T05:30:30.232Z,99.90
2019-02-07T05:33:18.286Z,99.90
2019-02-07T05:36:04.701Z,99.90
2019-02-07T05:39:01.730Z,99.90
2019-02-07T05:41:40.781Z,99.90
2019-02-07T05:44:37.728Z,99.90
2019-02-07T05:47:24.804Z,99.90
2019-02-07T05:50:22.206Z,99.90
2019-02-07T05:53:08.949Z,99.90
2019-02-07T05:56:09.090Z,99.90
2019-02-07T05:59:09.197Z,99.90
2019-02-07T06:01:54.565Z,99.90
2019-02-07T06:04:47.926Z,99.90
2019-02-07T06:07:34.761Z,99.90
2019-02-07T06:10:22.745Z,99.90
2019-02-07T06:13:06.515Z,99.90
2019-02-07T06:15:46.361Z,99.90
2019-02-07T06:18:33.569Z,99.90
2019-02-07T06:21:15.896Z,99.90
2019-02-07T06:23:53.204Z,99.90
2019-02-07T06:26:38.137Z,99.90
2019-02-07T06:29:14.640Z,99.90
2019-02-07T06:32:01.388Z,99.90
2019-02-07T06:34:45.375Z,99.90
2019-02-07T06:37:24.264Z,99.90
2019-02-07T06:40:15.281Z,99.90
2019-02-07T06:43:06.218Z,99.90
2019-02-07T06:45:56.067Z,99.90
2019-02-07T06:48:33.357Z,99.90
2019-02-07T06:51:27.704Z,99.90
2019-02-07T06:54:14.473Z,99.90
2019-02-07T06:57:20.840Z,99.90
2019-02-07T07:00:04.071Z,99.90
2019-02-07T07:02:52.042Z,99.90
2019-02-07T07:05:30.929Z,99.90
2019-02-07T07:08:21.312Z,99.90
2019-02-07T07:11:15.884Z,99.90
2019-02-07T07:14:09.659Z,99.90
2019-02-07T07:17:04.100Z,99.90
2019-02-07T07:19:50.652Z,99.90
2019-02-07T07:22:44.987Z,99.90
2019-02-07T07:25:23.998Z,99.90
2019-02-07T07:28:13.352Z,99.90
2019-02-07T07:31:06.019Z,99.90
2019-02-07T07:33:57.080Z,99.90
2019-02-07T07:36:50.949Z,99.90
2019-02-07T07:39:41.838Z,99.90
2019-02-07T07:42:28.811Z,99.90
2019-02-07T07:45:07.852Z,99.90
2019-02-07T07:48:04.768Z,99.90
2019-02-07T07:51:00.021Z,99.90
2019-02-07T07:53:56.888Z,99.90
2019-02-07T07:56:38.786Z,99.90
2019-02-07T07:59:25.581Z,99.90
2019-02-07T08:02:12.565Z,99.90
2019-02-07T08:04:59.160Z,99.90
2019-02-07T08:07:56.357Z,99.90
2019-02-07T08:10:50.111Z,99.90
2019-02-07T08:13:34.868Z,99.90
2019-02-07T08:16:23.437Z,99.90
2019-02-07T08:19:14.850Z,99.90
2019-02-07T08:22:05.869Z,99.90
2019-02-07T08:24:54.106Z,99.90
2019-02-07T08:27:44.705Z,99.90
2019-02-07T08:30:38.908Z,99.90
2019-02-07T08:33:22.448Z,99.90
2019-02-07T08:36:10.435Z,99.90
2019-02-07T08:39:01.539Z,99.90
2019-02-07T08:41:44.491Z,99.90
2019-02-07T08:44:31.476Z,99.90
2019-02-07T08:47:16.483Z,99.90
2019-02-07T08:50:07.302Z,99.90
2019-02-07T08:52:58.100Z,99.90
2019-02-07T08:55:46.340Z,99.90
2019-02-07T08:58:52.612Z,99.90
2019-02-07T09:01:39.192Z,99.90
2019-02-07T09:04:38.511Z,99.90
2019-02-07T09:07:32.093Z,99.90
2019-02-07T09:10:18.070Z,99.90
2019-02-07T09:13:04.598Z,99.90
2019-02-07T09:15:52.225Z,99.90
2019-02-07T09:18:43.288Z,99.90
2019-02-07T09:21:31.548Z,99.90
2019-02-07T09:24:28.501Z,99.70
2019-02-07T09:27:10.778Z,99.60
2019-02-07T09:29:58.834Z,99.40
2019-02-07T09:32:46.876Z,98.10
2019-02-07T09:35:25.885Z,98.00
2019-02-07T09:38:16.531Z,97.80
2019-02-07T09:41:04.428Z,97.60
2019-02-07T09:44:01.444Z,97.40
2019-02-07T09:46:52.394Z,97.40
2019-02-07T09:49:35.408Z,97.20
2019-02-07T09:52:23.368Z,97.20
2019-02-07T09:55:28.084Z,97.20
2019-02-07T09:58:15.305Z,97.40
2019-02-07T10:01:00.458Z,97.40
2019-02-07T10:03:47.302Z,97.50
2019-02-07T10:06:23.424Z,97.60
2019-02-07T10:09:11.709Z,98.20
2019-02-07T10:12:12.099Z,98.00
2019-02-07T10:15:05.868Z,97.70
2019-02-07T10:17:59.693Z,97.70
2019-02-07T10:20:38.697Z,97.90
2019-02-07T10:23:17.508Z,98.10
2019-02-07T10:26:11.799Z,98.10
2019-02-07T10:28:58.708Z,98.10
2019-02-07T10:31:50.025Z,98.30
2019-02-07T10:34:26.297Z,98.60
2019-02-07T10:37:17.546Z,98.50
2019-02-07T10:40:05.631Z,98.50
2019-02-07T10:42:52.438Z,98.50
2019-02-07T10:45:46.444Z,98.60
2019-02-07T10:48:28.984Z,98.60
2019-02-07T10:51:14.134Z,98.90
2019-02-07T10:53:59.311Z,99.30
2019-02-07T10:56:43.228Z,99.60
2019-02-07T10:59:40.835Z,99.90
2019-02-07T11:02:48.430Z,99.90
2019-02-07T11:05:34.788Z,99.90
2019-02-07T11:08:22.129Z,99.90
2019-02-07T11:11:08.800Z,99.90
2019-02-07T11:14:06.310Z,99.90
2019-02-07T11:16:57.257Z,99.90
2019-02-07T11:19:43.796Z,99.90
2019-02-07T11:22:29.087Z,99.90
2019-02-07T11:25:32.626Z,99.90
2019-02-07T11:28:23.194Z,99.90
2019-02-07T11:31:19.963Z,99.90
2019-02-07T11:34:22.936Z,99.90
2019-02-07T11:37:15.398Z,99.90
2019-02-07T11:40:15.250Z,99.90
2019-02-07T11:43:02.357Z,99.90
2019-02-07T11:45:50.221Z,99.90
2019-02-07T11:48:38.411Z,99.90
2019-02-07T11:51:16.189Z,99.90
2019-02-07T11:54:02.597Z,99.90
2019-02-07T11:56:49.494Z,99.90
2019-02-07T11:59:36.653Z,99.90
2019-02-07T12:02:23.915Z,99.90
2019-02-07T12:05:17.399Z,99.90
2019-02-07T12:08:04.129Z,99.90
2019-02-07T12:10:50.993Z,99.90
2019-02-07T12:13:54.568Z,99.90
2019-02-07T12:16:57.970Z,99.90
2019-02-07T12:19:52.490Z,99.90
2019-02-07T12:22:42.729Z,99.90
2019-02-07T12:25:37.229Z,99.90
2019-02-07T12:28:25.845Z,99.90
2019-02-07T12:31:14.812Z,99.90
2019-02-07T12:34:02.778Z,99.90
2019-02-07T12:37:00.656Z,99.90
2019-02-07T12:40:02.206Z,99.90
2019-02-07T12:42:50.176Z,99.90
2019-02-07T12:45:53.525Z,99.90
2019-02-07T12:48:51.939Z,99.90
2019-02-07T12:51:32.291Z,99.90
2019-02-07T12:54:26.253Z,99.90
2019-02-07T12:57:10.022Z,99.90
2019-02-07T13:00:01.738Z,99.90
2019-02-07T13:02:48.693Z,99.90
2019-02-07T13:05:36.077Z,99.90
2019-02-07T13:08:13.682Z,99.90
2019-02-07T13:10:55.245Z,99.90
2019-02-07T13:13:34.164Z,99.90
2019-02-07T13:16:31.245Z,99.90
2019-02-07T13:19:18.466Z,99.90
2019-02-07T13:22:09.173Z,99.90
2019-02-07T13:24:52.980Z,99.90
2019-02-07T13:27:39.926Z,99.90
2019-02-07T13:30:20.700Z,99.90
2019-02-07T13:33:02.275Z,99.90
2019-02-07T13:35:48.878Z,99.90
2019-02-07T13:38:36.997Z,99.90
2019-02-07T13:41:32.849Z,99.90
2019-02-07T13:44:27.555Z,99.90
2019-02-07T13:47:27.872Z,99.90
2019-02-07T13:50:06.879Z,99.90
2019-02-07T13:52:50.437Z,99.90
2019-02-07T13:55:30.974Z,99.90
2019-02-07T13:58:25.233Z,99.90
2019-02-07T14:01:28.393Z,99.90
2019-02-07T14:04:15.008Z,99.90
2019-02-07T14:07:02.854Z,99.90
2019-02-07T14:09:59.212Z,99.90
2019-02-07T14:12:47.200Z,99.90
2019-02-07T14:15:33.896Z,99.90
2019-02-07T14:18:20.199Z,99.90
2019-02-07T14:21:06.596Z,99.90
2019-02-07T14:23:53.512Z,99.90
2019-02-07T14:26:40.840Z,99.90
2019-02-07T14:29:20.789Z,99.90
2019-02-07T14:32:07.670Z,99.90
2019-02-07T14:34:50.110Z,99.90
2019-02-07T14:37:47.269Z,99.90
2019-02-07T14:40:33.920Z,99.90
2019-02-07T14:43:31.059Z,99.90
2019-02-07T14:46:18.001Z,99.90
2019-02-07T14:48:46.903Z,99.90
2019-02-07T14:51:16.549Z,99.90
2019-02-07T14:53:45.425Z,99.90
2019-02-07T14:56:14.289Z,99.90
2019-02-07T14:58:43.146Z,99.90
2019-02-07T15:01:12.114Z,99.90
2019-02-07T15:03:40.964Z,99.90
2019-02-07T15:06:09.890Z,99.90
2019-02-07T15:08:38.680Z,99.90
2019-02-07T15:11:08.790Z,99.90
2019-02-07T15:13:38.929Z,99.90
2019-02-07T15:16:08.261Z,99.90
2019-02-07T15:18:37.041Z,99.90
2019-02-07T15:21:06.283Z,99.90
2019-02-07T15:23:35.196Z,99.90
2019-02-07T15:26:04.627Z,99.90
2019-02-07T15:28:33.562Z,99.90
2019-02-07T15:31:02.792Z,99.90
2019-02-07T15:33:31.567Z,99.90
2019-02-07T15:36:00.774Z,99.90
2019-02-07T15:38:29.727Z,99.90
2019-02-07T15:40:58.605Z,99.90
2019-02-07T15:43:27.558Z,99.90
2019-02-07T15:45:56.558Z,99.90
2019-02-07T15:48:25.373Z,99.90
2019-02-07T15:50:54.441Z,99.90
2019-02-07T15:53:23.451Z,99.90
2019-02-07T15:55:52.404Z,99.90
2019-02-07T15:58:30.732Z,99.90
2019-02-07T16:01:04.103Z,99.90
2019-02-07T16:03:38.547Z,99.90
2019-02-07T16:06:08.006Z,99.90
2019-02-07T16:08:37.252Z,99.90
2019-02-07T16:11:06.382Z,99.90
2019-02-07T16:13:35.541Z,99.90
2019-02-07T16:16:04.885Z,99.90
2019-02-07T16:18:34.097Z,99.90
2019-02-07T16:21:03.028Z,99.90
2019-02-07T16:23:32.319Z,99.90
2019-02-07T16:26:01.322Z,99.90
2019-02-07T16:28:30.765Z,99.90
2019-02-07T16:30:59.746Z,99.90
2019-02-07T16:33:28.753Z,99.90
2019-02-07T16:35:57.918Z,99.90
2019-02-07T16:38:26.911Z,99.90
2019-02-07T16:40:55.771Z,99.90
2019-02-07T16:43:25.125Z,99.90
2019-02-07T16:45:54.150Z,99.90
2019-02-07T16:48:23.246Z,99.90
2019-02-07T16:50:59.871Z,99.90
2019-02-07T16:53:23.034Z,99.90
2019-02-07T16:55:52.091Z,99.90
2019-02-07T16:58:21.351Z,99.90
2019-02-07T17:00:50.242Z,99.90
2019-02-07T17:03:19.194Z,99.90
2019-02-07T17:05:48.151Z,99.90
2019-02-07T17:08:17.384Z,99.90
2019-02-07T17:10:46.398Z,99.90
2019-02-07T17:13:15.421Z,99.90
2019-02-07T17:15:44.350Z,99.90
2019-02-07T17:18:13.199Z,99.90
2019-02-07T17:20:42.366Z,99.90
2019-02-07T17:23:11.280Z,99.90
2019-02-07T17:25:40.169Z,99.90
2019-02-07T17:28:09.024Z,99.90
2019-02-07T17:30:38.958Z,99.90
2019-02-07T17:33:07.862Z,99.90
2019-02-07T17:35:37.311Z,99.90
2019-02-07T17:38:06.510Z,99.90
2019-02-07T17:40:35.507Z,99.90
2019-02-07T17:43:04.933Z,99.90
2019-02-07T17:45:33.901Z,99.90
2019-02-07T17:48:02.840Z,99.90
2019-02-07T17:50:32.857Z,99.90
2019-02-07T17:53:03.057Z,99.90
2019-02-07T17:55:32.069Z,99.90
2019-02-07T17:58:00.944Z,99.90
2019-02-07T18:00:57.249Z,99.90
2019-02-07T18:03:26.214Z,99.90
2019-02-07T18:05:55.068Z,99.90
2019-02-07T18:08:24.221Z,99.90
2019-02-07T18:10:53.469Z,99.90
2019-02-07T18:13:22.391Z,99.90
2019-02-07T18:15:51.261Z,99.90
2019-02-07T18:18:20.235Z,99.90
2019-02-07T18:20:49.230Z,99.90
2019-02-07T18:23:18.084Z,99.90
2019-02-07T18:25:47.400Z,99.90
2019-02-07T18:28:16.345Z,99.90
2019-02-07T18:30:45.528Z,99.90
2019-02-07T18:33:14.643Z,99.90
2019-02-07T18:35:43.561Z,99.90
2019-02-07T18:38:12.404Z,99.90
2019-02-07T18:40:41.656Z,99.90
2019-02-07T18:43:10.438Z,99.90
2019-02-07T18:45:39.362Z,99.90
2019-02-07T18:48:08.232Z,99.90
2019-02-07T18:50:37.709Z,99.90
2019-02-07T18:53:06.974Z,99.90
2019-02-07T18:55:35.837Z,99.90
2019-02-07T18:58:05.259Z,99.90
2019-02-07T19:00:35.063Z,99.90
2019-02-07T19:03:05.236Z,99.90
2019-02-07T19:05:34.721Z,99.90
2019-02-07T19:08:06.062Z,99.90
2019-02-07T19:10:35.472Z,99.90
2019-02-07T19:13:04.756Z,99.90
2019-02-07T19:16:03.734Z,99.90
2019-02-07T19:18:32.809Z,99.90
2019-02-07T19:21:02.037Z,99.90
2019-02-07T19:23:30.946Z,99.90
2019-02-07T19:25:59.717Z,99.90
2019-02-07T19:28:28.541Z,99.90
2019-02-07T19:31:03.361Z,99.90
2019-02-07T19:33:32.287Z,99.90
2019-02-07T19:36:01.561Z,99.90
2019-02-07T19:38:32.917Z,99.90
2019-02-07T19:41:01.757Z,99.90
2019-02-07T19:43:30.660Z,99.90
2019-02-07T19:45:59.677Z,99.90
2019-02-07T19:48:28.511Z,99.90
2019-02-07T19:50:57.398Z,99.90
2019-02-07T19:53:26.335Z,99.90
2019-02-07T19:55:55.220Z,99.90
2019-02-07T19:58:24.076Z,99.90
2019-02-07T20:00:53.017Z,99.90
2019-02-07T20:03:21.881Z,99.90
2019-02-07T20:05:50.726Z,99.90
2019-02-07T20:08:20.792Z,99.90
2019-02-07T20:10:49.700Z,99.90
2019-02-07T20:13:18.795Z,99.90
2019-02-07T20:15:47.776Z,99.90
2019-02-07T20:18:16.644Z,99.90
2019-02-07T20:20:45.553Z,99.90
2019-02-07T20:23:14.865Z,99.90
2019-02-07T20:25:43.676Z,99.90
2019-02-07T20:28:12.636Z,99.90
2019-02-07T20:30:42.867Z,99.90
2019-02-07T20:33:11.828Z,99.90
2019-02-07T20:35:41.050Z,99.90
2019-02-07T20:38:10.727Z,99.90
2019-02-07T20:40:40.010Z,99.90
2019-02-07T20:43:09.551Z,99.90
2019-02-07T20:45:38.488Z,99.90
2019-02-07T20:48:08.928Z,99.90
2019-02-07T20:50:37.927Z,99.90
2019-02-07T20:53:07.269Z,99.90
2019-02-07T20:55:36.548Z,99.90
2019-02-07T20:58:06.178Z,99.90
2019-02-07T21:00:36.772Z,99.90
2019-02-07T21:03:06.172Z,99.90
2019-02-07T21:05:35.823Z,99.90
2019-02-07T21:08:04.778Z,99.90
2019-02-07T21:10:34.126Z,99.90
2019-02-07T21:13:03.325Z,99.90
2019-02-07T21:15:32.223Z,99.90
2019-02-07T21:18:01.416Z,99.90
2019-02-07T21:20:30.716Z,99.90
2019-02-07T21:23:00.040Z,99.90
2019-02-07T21:25:37.755Z,99.90
2019-02-07T21:28:08.121Z,99.90
2019-02-07T21:30:37.260Z,99.90
2019-02-07T21:33:06.860Z,99.90
2019-02-07T21:35:35.865Z,99.90
2019-02-07T21:38:05.784Z,99.90
2019-02-07T21:40:34.776Z,99.90
2019-02-07T21:43:03.942Z,99.90
2019-02-07T21:45:33.442Z,99.90
2019-02-07T21:48:03.152Z,99.90
2019-02-07T21:50:32.239Z,99.90
2019-02-07T21:53:01.167Z,99.90
2019-02-07T21:55:30.478Z,99.90
2019-02-07T21:57:59.687Z,99.90
2019-02-07T22:00:36.828Z,99.90
2019-02-07T22:03:09.135Z,99.90
2019-02-07T22:05:38.157Z,99.90
2019-02-07T22:08:07.797Z,99.90
2019-02-07T22:10:36.766Z,99.90
2019-02-07T22:13:06.970Z,99.90
2019-02-07T22:15:35.881Z,99.90
2019-02-07T22:18:05.313Z,99.90
2019-02-07T22:20:34.311Z,99.90
2019-02-07T22:23:03.261Z,99.90
2019-02-07T22:25:32.116Z,99.90
2019-02-07T22:28:01.044Z,99.90
2019-02-07T22:30:32.528Z,99.90
2019-02-07T22:33:01.854Z,99.90
2019-02-07T22:35:30.796Z,99.90
2019-02-07T22:38:00.487Z,99.90
2019-02-07T22:40:29.401Z,99.90
2019-02-07T22:42:59.650Z,99.90
2019-02-07T22:45:28.883Z,99.90
2019-02-07T22:47:57.768Z,99.90
2019-02-07T22:50:27.691Z,99.90
2019-02-07T22:52:57.424Z,99.90
2019-02-07T22:55:26.342Z,99.90
2019-02-07T22:57:55.296Z,99.90
2019-02-07T23:01:08.876Z,99.90
2019-02-07T23:03:39.843Z,99.90
2019-02-07T23:06:09.219Z,99.90
2019-02-07T23:08:38.183Z,99.90
2019-02-07T23:11:08.961Z,99.90
2019-02-07T23:13:37.887Z,99.90
2019-02-07T23:16:08.573Z,99.90
2019-02-07T23:18:38.292Z,99.90
2019-02-07T23:21:08.093Z,99.90
2019-02-07T23:23:37.010Z,99.90
2019-02-07T23:26:07.116Z,99.90
2019-02-07T23:28:36.004Z,99.90
2019-02-07T23:31:06.896Z,99.90
2019-02-07T23:33:36.427Z,99.90
2019-02-07T23:36:07.081Z,99.90
2019-02-07T23:38:35.939Z,99.90
2019-02-07T23:41:06.699Z,99.90
2019-02-07T23:43:35.609Z,99.90
2019-02-07T23:46:05.583Z,99.90
2019-02-07T23:48:34.896Z,99.90
2019-02-07T23:51:04.128Z,99.90
2019-02-07T23:53:33.064Z,99.90
2019-02-07T23:56:01.916Z,99.90
2019-02-07T23:58:30.849Z,99.90
